Time;durP1;ratioP1;P1;durP2;ratioP2;P2;SDS_P1;SDS_P2;PMS_P1;PMS_P2;Temp;Humidity;BMP_temperature;BMP_pressure;BME280_temperature;BME280_humidity;BME280_pressure;Samples;Min_cycle;Max_cycle;Signal;HPM_P1;HPM_P2
2022/06/21 00:01:11;;;;;;;0.00;0.00;;;;;;;;;;5034636;28;20041;-81
2022/06/21 00:03:37;;;;;;;0.00;0.00;;;;;;;;;;5052568;28;20037;-80
2022/06/21 00:06:03;;;;;;;0.00;0.00;;;;;;;;;;5052614;28;20049;-81
2022/06/21 00:08:30;;;;;;;0.00;0.00;;;;;;;;;;5034847;28;20045;-81
2022/06/21 00:10:57;;;;;;;0.00;0.00;;;;;;;;;;5052267;28;20045;-81
2022/06/21 00:13:25;;;;;;;0.00;0.00;;;;;;;;;;5035104;28;20448;-80
2022/06/21 00:15:52;;;;;;;0.00;0.00;;;;;;;;;;5034137;28;20536;-81
2022/06/21 00:18:20;;;;;;;0.00;0.00;;;;;;;;;;5052743;28;20163;-80
2022/06/21 00:20:46;;;;;;;0.00;0.00;;;;;;;;;;5034516;28;20072;-81
2022/06/21 00:23:17;;;;;;;0.00;0.00;;;;;;;;;;5018054;28;20484;-81
2022/06/21 00:25:46;;;;;;;0.00;0.00;;;;;;;;;;5034461;28;20045;-80
2022/06/21 00:28:12;;;;;;;0.00;0.00;;;;;;;;;;5034652;28;20512;-81
2022/06/21 00:30:39;;;;;;;0.00;0.00;;;;;;;;;;5034598;28;20077;-81
2022/06/21 00:33:08;;;;;;;0.00;0.00;;;;;;;;;;5052741;28;20048;-81
2022/06/21 00:35:34;;;;;;;0.00;0.00;;;;;;;;;;5017689;28;20128;-80
2022/06/21 00:38:00;;;;;;;0.00;0.00;;;;;;;;;;5035001;28;20457;-80
2022/06/21 00:40:29;;;;;;;0.00;0.00;;;;;;;;;;5034470;28;20076;-80
2022/06/21 00:43:07;;;;;;;0.20;0.10;;;;;;;;;;5034339;28;20048;-80
2022/06/21 00:45:39;;;;;;;0.00;0.00;;;;;;;;;;5052338;28;20377;-80
2022/06/21 00:48:23;;;;;;;0.00;0.00;;;;;;;;;;5034342;28;20129;-81
2022/06/21 00:50:52;;;;;;;0.00;0.00;;;;;;;;;;5034320;28;20044;-80
2022/06/21 00:53:22;;;;;;;0.00;0.00;;;;;;;;;;5034331;28;20438;-80
2022/06/21 00:55:48;;;;;;;0.00;0.00;;;;;;;;;;5034609;28;20118;-81
2022/06/21 00:58:15;;;;;;;0.00;0.00;;;;;;;;;;5052362;28;20045;-81
2022/06/21 01:00:41;;;;;;;0.00;0.00;;;;;;;;;;5034407;28;20044;-80
2022/06/21 01:03:12;;;;;;;0.00;0.00;;;;;;;;;;5036952;28;20040;-81
2022/06/21 01:05:40;;;;;;;0.00;0.00;;;;;;;;;;5038028;28;20067;-81
2022/06/21 01:08:08;;;;;;;0.00;0.00;;;;;;;;;;5037621;28;20076;-81
2022/06/21 01:10:34;;;;;;;0.00;0.00;;;;;;;;;;5055566;28;20103;-81
2022/06/21 01:13:08;;;;;;;0.00;0.00;;;;;;;;;;5037969;28;20048;-81
2022/06/21 01:15:37;;;;;;;0.00;0.00;;;;;;;;;;5055399;28;20069;-80
2022/06/21 01:18:05;;;;;;;0.00;0.00;;;;;;;;;;5037273;28;20087;-81
2022/06/21 01:20:33;;;;;;;0.00;0.00;;;;;;;;;;5037450;28;20087;-80
2022/06/21 01:23:17;;;;;;;0.00;0.00;;;;;;;;;;5037369;28;20045;-81
2022/06/21 01:25:43;;;;;;;0.00;0.00;;;;;;;;;;5037992;28;20132;-81
2022/06/21 01:28:11;;;;;;;0.00;0.00;;;;;;;;;;5037516;28;20124;-81
2022/06/21 01:30:38;;;;;;;0.00;0.00;;;;;;;;;;5021063;28;20049;-81
2022/06/21 01:33:05;;;;;;;0.00;0.00;;;;;;;;;;5020660;28;20056;-81
2022/06/21 01:35:41;;;;;;;0.00;0.00;;;;;;;;;;5055239;28;20040;-81
2022/06/21 01:38:08;;;;;;;0.00;0.00;;;;;;;;;;5054979;28;20435;-81
2022/06/21 01:40:37;;;;;;;0.00;0.00;;;;;;;;;;5055020;28;20124;-81
2022/06/21 01:43:07;;;;;;;0.00;0.00;;;;;;;;;;5037077;28;20072;-81
2022/06/21 01:45:36;;;;;;;0.00;0.00;;;;;;;;;;5036904;28;20090;-81
2022/06/21 01:48:06;;;;;;;0.00;0.00;;;;;;;;;;5036857;28;20041;-81
2022/06/21 01:50:32;;;;;;;0.00;0.00;;;;;;;;;;5055103;28;20047;-81
2022/06/21 01:52:58;;;;;;;0.00;0.00;;;;;;;;;;5037075;28;20574;-81
2022/06/21 01:55:42;;;;;;;0.00;0.00;;;;;;;;;;5037072;28;20496;-81
2022/06/21 01:58:10;;;;;;;0.00;0.00;;;;;;;;;;5037071;28;20048;-81
2022/06/21 02:00:37;;;;;;;0.00;0.00;;;;;;;;;;5036675;28;20092;-81
2022/06/21 02:03:08;;;;;;;0.00;0.00;;;;;;;;;;5054689;28;20037;-80
2022/06/21 02:05:45;;;;;;;0.00;0.00;;;;;;;;;;5036904;28;20107;-81
2022/06/21 02:08:13;;;;;;;0.00;0.00;;;;;;;;;;5036752;28;20128;-81
2022/06/21 02:10:45;;;;;;;0.20;0.05;;;;;;;;;;5036669;28;20162;-81
2022/06/21 02:13:20;;;;;;;0.00;0.00;;;;;;;;;;5036399;28;20040;-81
2022/06/21 02:15:53;;;;;;;0.00;0.00;;;;;;;;;;5036626;28;20139;-81
2022/06/21 02:18:20;;;;;;;0.00;0.00;;;;;;;;;;5036591;28;20048;-81
2022/06/21 02:21:04;;;;;;;0.00;0.00;;;;;;;;;;5036343;28;20053;-81
2022/06/21 02:23:30;;;;;;;0.00;0.00;;;;;;;;;;5053998;28;20064;-81
2022/06/21 02:25:57;;;;;;;0.00;0.00;;;;;;;;;;5036456;28;20044;-81
2022/06/21 02:28:23;;;;;;;0.00;0.00;;;;;;;;;;5036284;28;20061;-80
2022/06/21 02:30:51;;;;;;;0.00;0.00;;;;;;;;;;5036610;28;20099;-80
2022/06/21 02:33:19;;;;;;;0.00;0.00;;;;;;;;;;5054052;28;20037;-80
2022/06/21 02:35:49;;;;;;;0.00;0.00;;;;;;;;;;5036191;28;20488;-81
2022/06/21 02:38:17;;;;;;;0.00;0.00;;;;;;;;;;5036442;28;20403;-81
2022/06/21 02:40:45;;;;;;;0.00;0.00;;;;;;;;;;5035901;28;20150;-81
2022/06/21 02:43:14;;;;;;;0.00;0.00;;;;;;;;;;5019240;28;20048;-80
2022/06/21 02:45:45;;;;;;;0.00;0.00;;;;;;;;;;5019639;28;20052;-81
2022/06/21 02:48:14;;;;;;;0.00;0.00;;;;;;;;;;5019297;28;20037;-81
2022/06/21 02:50:47;;;;;;;0.00;0.00;;;;;;;;;;5036313;28;20044;-81
2022/06/21 02:53:18;;;;;;;0.00;0.00;;;;;;;;;;5053706;28;20598;-81
2022/06/21 02:55:46;;;;;;;0.00;0.00;;;;;;;;;;5035729;28;20048;-81
2022/06/21 02:58:13;;;;;;;0.00;0.00;;;;;;;;;;5035267;28;20049;-81
2022/06/21 03:00:40;;;;;;;0.00;0.00;;;;;;;;;;5035831;28;20484;-81
2022/06/21 03:03:11;;;;;;;0.00;0.00;;;;;;;;;;5035374;28;20041;-81
2022/06/21 03:05:37;;;;;;;0.00;0.00;;;;;;;;;;5035568;28;20141;-81
2022/06/21 03:08:04;;;;;;;0.00;0.00;;;;;;;;;;5019154;28;20397;-81
2022/06/21 03:10:33;;;;;;;0.00;0.00;;;;;;;;;;5035673;28;20040;-81
2022/06/21 03:13:07;;;;;;;0.00;0.00;;;;;;;;;;5035244;28;20048;-81
2022/06/21 03:15:34;;;;;;;0.00;0.00;;;;;;;;;;5035621;28;20484;-80
2022/06/21 03:18:02;;;;;;;0.00;0.00;;;;;;;;;;5035196;28;20057;-81
2022/06/21 03:20:30;;;;;;;0.00;0.00;;;;;;;;;;5035401;28;20052;-80
2022/06/21 03:22:57;;;;;;;0.00;0.00;;;;;;;;;;5035175;28;20045;-81
2022/06/21 03:25:28;;;;;;;0.00;0.00;;;;;;;;;;5034491;28;20037;-81
2022/06/21 03:27:59;;;;;;;0.00;0.00;;;;;;;;;;5035445;28;20060;-81
2022/06/21 03:30:27;;;;;;;0.00;0.00;;;;;;;;;;5018970;28;20040;-81
2022/06/21 03:32:54;;;;;;;0.00;0.00;;;;;;;;;;5052932;28;20044;-81
2022/06/21 03:35:21;;;;;;;0.00;0.00;;;;;;;;;;5035191;28;20049;-81
2022/06/21 03:37:47;;;;;;;0.00;0.00;;;;;;;;;;5052837;28;20052;-81
2022/06/21 03:43:04;;;;;;;0.00;0.00;;;;;;;;;;5053191;28;20041;-81
2022/06/21 03:45:31;;;;;;;0.00;0.00;;;;;;;;;;5052695;28;20045;-81
2022/06/21 03:48:18;;;;;;;0.00;0.00;;;;;;;;;;5018549;28;20048;-81
2022/06/21 03:50:47;;;;;;;0.00;0.00;;;;;;;;;;5035006;28;20052;-81
2022/06/21 03:53:19;;;;;;;0.00;0.00;;;;;;;;;;5034723;28;20049;-82
2022/06/21 03:55:51;;;;;;;0.00;0.00;;;;;;;;;;5034856;28;20170;-81
2022/06/21 03:58:40;;;;;;;0.00;0.00;;;;;;;;;;5052685;28;20079;-81
2022/06/21 04:01:13;;;;;;;0.00;0.00;;;;;;;;;;4990121;28;20057;-81
2022/06/21 04:03:45;;;;;;;0.00;0.00;;;;;;;;;;5034529;28;20040;-81
2022/06/21 04:06:16;;;;;;;0.00;0.00;;;;;;;;;;5052835;28;20098;-81
2022/06/21 04:08:47;;;;;;;0.00;0.00;;;;;;;;;;5034496;28;20041;-81
2022/06/21 04:11:26;;;;;;;0.00;0.00;;;;;;;;;;5034833;28;20417;-81
2022/06/21 04:13:52;;;;;;;0.00;0.00;;;;;;;;;;5034595;28;20045;-80
2022/06/21 04:16:25;;;;;;;0.00;0.00;;;;;;;;;;5034597;28;20118;-81
2022/06/21 04:18:57;;;;;;;0.00;0.00;;;;;;;;;;5034664;28;20049;-81
2022/06/21 04:21:46;;;;;;;0.20;0.03;;;;;;;;;;5034889;28;20053;-81
2022/06/21 04:24:24;;;;;;;0.00;0.00;;;;;;;;;;5034657;28;20037;-81
2022/06/21 04:26:52;;;;;;;0.00;0.00;;;;;;;;;;5034894;28;20123;-81
2022/06/21 04:29:41;;;;;;;0.00;0.00;;;;;;;;;;5034352;28;20484;-81
2022/06/21 04:32:17;;;;;;;0.00;0.00;;;;;;;;;;5022025;28;20055;-81
2022/06/21 04:34:52;;;;;;;0.00;0.00;;;;;;;;;;5018149;28;20400;-81
2022/06/21 04:37:24;;;;;;;0.00;0.00;;;;;;;;;;5037705;28;20127;-81
2022/06/21 04:39:57;;;;;;;0.05;0.00;;;;;;;;;;5037987;28;20053;-81
2022/06/21 04:42:27;;;;;;;0.00;0.00;;;;;;;;;;5038441;28;20087;-81
2022/06/21 04:45:19;;;;;;;0.00;0.00;;;;;;;;;;5056025;28;20044;-81
2022/06/21 04:47:48;;;;;;;0.00;0.00;;;;;;;;;;5034150;28;20453;-81
2022/06/21 04:50:17;;;;;;;0.00;0.00;;;;;;;;;;5021813;28;20049;-81
2022/06/21 04:52:46;;;;;;;0.00;0.00;;;;;;;;;;5038527;28;20051;-81
2022/06/21 04:55:16;;;;;;;0.00;0.00;;;;;;;;;;5037999;28;20048;-81
2022/06/21 04:57:42;;;;;;;0.00;0.00;;;;;;;;;;5038354;28;20052;-81
2022/06/21 05:00:26;;;;;;;0.00;0.00;;;;;;;;;;5037716;28;20558;-81
2022/06/21 05:02:55;;;;;;;0.00;0.00;;;;;;;;;;5038334;28;20044;-81
2022/06/21 05:05:33;;;;;;;0.00;0.00;;;;;;;;;;5037638;28;20400;-81
2022/06/21 05:08:01;;;;;;;0.00;0.00;;;;;;;;;;5037821;28;20553;-81
2022/06/21 05:10:37;;;;;;;0.00;0.00;;;;;;;;;;5037549;28;20071;-81
2022/06/21 05:13:06;;;;;;;0.00;0.00;;;;;;;;;;5037913;28;20049;-81
2022/06/21 05:15:34;;;;;;;0.00;0.00;;;;;;;;;;5055461;28;20056;-81
2022/06/21 05:18:03;;;;;;;0.00;0.00;;;;;;;;;;5037697;28;20060;-81
2022/06/21 05:20:32;;;;;;;0.00;0.00;;;;;;;;;;5037447;28;20048;-81
2022/06/21 05:23:01;;;;;;;0.00;0.00;;;;;;;;;;5037455;28;20041;-80
2022/06/21 05:25:30;;;;;;;0.00;0.00;;;;;;;;;;5021137;28;20045;-81
2022/06/21 05:28:02;;;;;;;0.00;0.00;;;;;;;;;;5037716;28;20045;-81
2022/06/21 05:30:34;;;;;;;0.00;0.00;;;;;;;;;;5054967;28;20041;-81
2022/06/21 05:33:03;;;;;;;0.00;0.00;;;;;;;;;;5037804;28;20179;-81
2022/06/21 05:35:36;;;;;;;0.00;0.00;;;;;;;;;;5037148;28;20041;-81
2022/06/21 05:38:05;;;;;;;0.00;0.00;;;;;;;;;;5055289;28;20569;-81
2022/06/21 05:40:51;;;;;;;0.00;0.00;;;;;;;;;;5037421;28;20124;-81
2022/06/21 05:43:19;;;;;;;0.00;0.00;;;;;;;;;;5037479;28;20048;-81
2022/06/21 05:45:48;;;;;;;0.00;0.00;;;;;;;;;;5020770;28;20278;-81
2022/06/21 05:48:20;;;;;;;0.00;0.00;;;;;;;;;;5036428;28;20535;-81
2022/06/21 05:50:46;;;;;;;0.00;0.00;;;;;;;;;;5036998;28;20044;-81
2022/06/21 05:53:15;;;;;;;0.00;0.00;;;;;;;;;;5036907;28;20503;-81
2022/06/21 05:55:43;;;;;;;0.00;0.00;;;;;;;;;;5036841;28;20091;-81
2022/06/21 05:58:17;;;;;;;0.00;0.00;;;;;;;;;;5037242;28;20047;-82
2022/06/21 06:00:46;;;;;;;0.00;0.00;;;;;;;;;;5020096;28;20123;-81
2022/06/21 06:03:16;;;;;;;0.00;0.00;;;;;;;;;;5037065;28;20045;-81
2022/06/21 06:05:42;;;;;;;0.00;0.00;;;;;;;;;;5036613;28;20082;-81
2022/06/21 06:08:14;;;;;;;0.00;0.00;;;;;;;;;;5054499;28;20037;-81
2022/06/21 06:10:42;;;;;;;0.00;0.00;;;;;;;;;;5036707;28;20563;-81
2022/06/21 06:13:11;;;;;;;0.00;0.00;;;;;;;;;;5036707;28;20514;-81
2022/06/21 06:15:40;;;;;;;0.00;0.00;;;;;;;;;;5054471;28;20041;-81
2022/06/21 06:18:13;;;;;;;0.00;0.00;;;;;;;;;;5036655;28;20124;-81
2022/06/21 06:20:45;;;;;;;0.00;0.00;;;;;;;;;;5036094;28;20554;-82
2022/06/21 06:23:29;;;;;;;0.00;0.00;;;;;;;;;;5036663;28;20048;-81
2022/06/21 06:25:59;;;;;;;0.00;0.00;;;;;;;;;;5036476;28;20391;-81
2022/06/21 06:28:41;;;;;;;0.00;0.00;;;;;;;;;;5025301;28;20131;-82
2022/06/21 06:31:10;;;;;;;0.00;0.00;;;;;;;;;;5016135;28;20322;-81
2022/06/21 06:33:38;;;;;;;0.00;0.00;;;;;;;;;;5015826;28;20052;-81
2022/06/21 06:36:10;;;;;;;0.00;0.00;;;;;;;;;;4999517;28;20128;-81
2022/06/21 06:38:37;;;;;;;0.00;0.00;;;;;;;;;;5016169;28;20091;-81
2022/06/21 06:41:11;;;;;;;0.00;0.00;;;;;;;;;;5015719;28;20049;-81
2022/06/21 06:43:40;;;;;;;0.00;0.00;;;;;;;;;;4999456;28;20133;-83
2022/06/21 06:46:07;;;;;;;0.00;0.00;;;;;;;;;;4999177;28;20065;-83
2022/06/21 06:48:36;;;;;;;0.00;0.00;;;;;;;;;;5015980;28;20077;-81
2022/06/21 06:51:22;;;;;;;0.00;0.00;;;;;;;;;;5015835;28;20429;-82
2022/06/21 06:53:51;;;;;;;0.00;0.00;;;;;;;;;;5022476;28;20445;-80
2022/06/21 06:56:27;;;;;;;0.00;0.00;;;;;;;;;;4999002;28;20399;-83
2022/06/21 06:58:59;;;;;;;0.00;0.00;;;;;;;;;;5009757;28;20048;-81
2022/06/21 07:01:39;;;;;;;0.00;0.00;;;;;;;;;;5014825;28;20132;-82
2022/06/21 07:04:06;;;;;;;0.00;0.00;;;;;;;;;;5015505;28;20633;-81
2022/06/21 07:06:32;;;;;;;0.00;0.00;;;;;;;;;;5015167;28;20452;-81
2022/06/21 07:09:10;;;;;;;0.00;0.00;;;;;;;;;;5033126;28;20069;-81
2022/06/21 07:11:36;;;;;;;0.00;0.00;;;;;;;;;;5032742;28;20079;-81
2022/06/21 07:14:02;;;;;;;0.00;0.00;;;;;;;;;;5015259;28;20076;-81
2022/06/21 07:16:29;;;;;;;0.00;0.00;;;;;;;;;;4998403;28;20064;-83
2022/06/21 07:18:57;;;;;;;0.00;0.00;;;;;;;;;;4998888;28;20533;-81
2022/06/21 07:21:24;;;;;;;0.00;0.00;;;;;;;;;;5014747;28;20050;-81
2022/06/21 07:23:52;;;;;;;0.05;0.00;;;;;;;;;;5014991;28;20041;-81
2022/06/21 07:26:18;;;;;;;0.00;0.00;;;;;;;;;;5015269;28;20049;-81
2022/06/21 07:28:44;;;;;;;0.00;0.00;;;;;;;;;;5015165;28;20504;-81
2022/06/21 07:31:29;;;;;;;0.00;0.00;;;;;;;;;;5014945;28;20041;-81
2022/06/21 07:34:07;;;;;;;0.00;0.00;;;;;;;;;;5032636;28;20175;-81
2022/06/21 07:36:40;;;;;;;0.00;0.00;;;;;;;;;;5015081;28;20121;-81
2022/06/21 07:39:14;;;;;;;0.00;0.00;;;;;;;;;;4998433;28;20167;-81
2022/06/21 07:41:46;;;;;;;0.00;0.00;;;;;;;;;;5014571;28;20128;-82
2022/06/21 07:44:29;;;;;;;0.00;0.00;;;;;;;;;;5014986;28;20041;-82
2022/06/21 07:47:00;;;;;;;0.00;0.00;;;;;;;;;;5015292;28;20488;-84
2022/06/21 07:49:40;;;;;;;0.00;0.00;;;;;;;;;;5018755;28;20095;-81
2022/06/21 07:52:15;;;;;;;0.00;0.00;;;;;;;;;;5031721;28;20386;-81
2022/06/21 07:54:48;;;;;;;0.00;0.00;;;;;;;;;;5031610;28;20072;-81
2022/06/21 07:57:18;;;;;;;0.00;0.00;;;;;;;;;;5031591;28;20484;-81
2022/06/21 07:59:48;;;;;;;0.00;0.00;;;;;;;;;;5032963;28;20033;-81
2022/06/21 08:08:10;;;;;;;0.00;0.00;;;;;;;;;;4955720;28;20047;-81
2022/06/21 08:10:38;;;;;;;0.00;0.00;;;;;;;;;;5016435;28;20060;-81
2022/06/21 08:13:05;;;;;;;0.00;0.00;;;;;;;;;;5036941;28;20057;-81
2022/06/21 08:15:34;;;;;;;0.00;0.00;;;;;;;;;;5036640;28;20095;-81
2022/06/21 08:17:59;;;;;;;0.00;0.00;;;;;;;;;;5035404;28;20077;-81
2022/06/21 08:20:28;;;;;;;0.00;0.00;;;;;;;;;;5035245;28;20048;-81
2022/06/21 08:23:01;;;;;;;0.00;0.00;;;;;;;;;;5035590;28;20069;-81
2022/06/21 08:25:39;;;;;;;0.00;0.00;;;;;;;;;;5035215;28;20041;-82
2022/06/21 08:28:05;;;;;;;0.00;0.00;;;;;;;;;;5036545;28;20378;-81
2022/06/21 08:30:36;;;;;;;0.00;0.00;;;;;;;;;;5034979;28;20072;-81
2022/06/21 08:33:10;;;;;;;0.00;0.00;;;;;;;;;;5036673;28;20140;-81
2022/06/21 08:35:45;;;;;;;0.00;0.00;;;;;;;;;;5036237;28;20041;-81
2022/06/21 08:38:19;;;;;;;0.00;0.00;;;;;;;;;;5018710;28;20071;-81
2022/06/21 08:41:04;;;;;;;0.00;0.00;;;;;;;;;;5034859;28;20347;-80
2022/06/21 08:43:49;;;;;;;0.00;0.00;;;;;;;;;;5035054;28;20037;-81
2022/06/21 08:46:25;;;;;;;0.00;0.00;;;;;;;;;;5035330;28;20396;-85
2022/06/21 08:49:00;;;;;;;0.00;0.00;;;;;;;;;;5035428;28;20037;-81
2022/06/21 08:51:35;;;;;;;0.00;0.00;;;;;;;;;;5035852;28;20124;-81
2022/06/21 08:54:08;;;;;;;0.00;0.00;;;;;;;;;;5036252;28;20049;-81
2022/06/21 08:56:37;;;;;;;0.00;0.00;;;;;;;;;;5035710;28;20052;-81
2022/06/21 08:59:10;;;;;;;0.00;0.00;;;;;;;;;;5018286;28;20049;-81
2022/06/21 09:01:45;;;;;;;0.00;0.00;;;;;;;;;;5034400;28;20052;-81
2022/06/21 09:04:14;;;;;;;0.00;0.00;;;;;;;;;;5034757;28;20104;-81
2022/06/21 09:06:49;;;;;;;0.00;0.00;;;;;;;;;;5034252;28;20480;-81
2022/06/21 09:09:15;;;;;;;;;;;;;;;;;;5034894;28;20077;-81
2022/06/21 09:12:04;;;;;;;0.00;0.00;;;;;;;;;;5033075;28;19968;-81
2022/06/21 09:14:47;;;;;;;0.00;0.00;;;;;;;;;;5034294;28;20052;-81
2022/06/21 09:17:51;;;;;;;0.00;0.00;;;;;;;;;;5034003;28;20061;-81
2022/06/21 09:20:38;;;;;;;0.00;0.00;;;;;;;;;;4920090;29;20051;-81
2022/06/21 09:23:06;;;;;;;0.00;0.00;;;;;;;;;;4919111;29;20071;-81
2022/06/21 09:25:51;;;;;;;0.00;0.00;;;;;;;;;;4981323;28;20047;-81
2022/06/21 09:28:26;;;;;;;0.00;0.00;;;;;;;;;;5016624;28;20048;-81
2022/06/21 09:31:18;;;;;;;0.00;0.00;;;;;;;;;;5035178;28;20045;-81
2022/06/21 09:33:55;;;;;;;0.00;0.00;;;;;;;;;;5013313;28;20445;-81
2022/06/21 09:36:31;;;;;;;0.00;0.00;;;;;;;;;;5001182;28;20053;-81
2022/06/21 09:39:16;;;;;;;0.00;0.00;;;;;;;;;;5017322;28;20045;-81
2022/06/21 09:41:52;;;;;;;0.00;0.00;;;;;;;;;;5017042;28;20041;-81
2022/06/21 09:44:42;;;;;;;0.00;0.00;;;;;;;;;;5017276;28;20280;-81
2022/06/21 09:47:26;;;;;;;0.00;0.00;;;;;;;;;;5000752;28;20044;-82
2022/06/21 09:50:05;;;;;;;0.00;0.00;;;;;;;;;;5017361;28;20256;-81
2022/06/21 09:52:34;;;;;;;0.00;0.00;;;;;;;;;;5017170;28;20287;-81
2022/06/21 09:55:19;;;;;;;0.00;0.00;;;;;;;;;;5017513;28;20041;-81
2022/06/21 09:57:57;;;;;;;0.00;0.00;;;;;;;;;;5016819;28;20503;-80
2022/06/21 10:00:32;;;;;;;0.00;0.00;;;;;;;;;;5016979;28;20504;-81
2022/06/21 10:02:58;;;;;;;;;;;;;;;;;;5016877;28;20432;-81
2022/06/21 10:05:45;;;;;;;0.00;0.00;;;;;;;;;;5029624;28;19951;-81
2022/06/21 10:08:14;;;;;;;0.00;0.00;;;;;;;;;;4964933;28;20382;-81
2022/06/21 10:10:46;;;;;;;0.00;0.00;;;;;;;;;;5014907;28;20042;-83
2022/06/21 10:13:21;;;;;;;0.00;0.00;;;;;;;;;;5014709;28;20042;-80
2022/06/21 10:15:51;;;;;;;0.00;0.00;;;;;;;;;;5014439;28;20091;-81
2022/06/21 10:18:23;;;;;;;0.00;0.00;;;;;;;;;;5014837;28;20100;-81
2022/06/21 10:20:53;;;;;;;0.00;0.00;;;;;;;;;;5013468;28;20050;-80
2022/06/21 10:23:28;;;;;;;0.00;0.00;;;;;;;;;;5013591;28;20033;-80
2022/06/21 10:26:00;;;;;;;0.00;0.00;;;;;;;;;;5014792;28;20045;-80
2022/06/21 10:28:41;;;;;;;0.00;0.00;;;;;;;;;;5012917;28;20049;-80
2022/06/21 10:31:28;;;;;;;0.00;0.00;;;;;;;;;;5014733;28;20129;-80
2022/06/21 10:33:57;;;;;;;0.00;0.00;;;;;;;;;;5013959;28;20084;-80
2022/06/21 10:36:26;;;;;;;0.00;0.00;;;;;;;;;;5014354;28;20041;-80
2022/06/21 10:39:01;;;;;;;0.00;0.00;;;;;;;;;;5013300;28;20405;-80
2022/06/21 10:42:46;;;;;;;0.00;0.00;;;;;;;;;;5014497;28;20064;-80
2022/06/21 10:44:38;;;;;;;0.00;0.00;;;;;;;;;;5016210;28;20041;-81
2022/06/21 10:47:12;;;;;;;0.00;0.00;;;;;;;;;;5016305;28;20037;-80
2022/06/21 10:49:59;;;;;;;0.00;0.00;;;;;;;;;;5016146;28;20144;-80
2022/06/21 10:52:37;;;;;;;0.00;0.00;;;;;;;;;;5016067;28;20056;-80
2022/06/21 10:55:11;;;;;;;0.00;0.00;;;;;;;;;;5016266;28;20041;-80
2022/06/21 10:57:53;;;;;;;0.00;0.00;;;;;;;;;;5032559;28;20042;-79
2022/06/21 11:03:34;;;;;;;0.00;0.00;;;;;;;;;;5033551;28;20045;-79
2022/06/21 11:06:19;;;;;;;0.00;0.00;;;;;;;;;;5019952;28;20111;-80
2022/06/21 11:09:04;;;;;;;0.00;0.00;;;;;;;;;;4999321;28;20060;-79
2022/06/21 11:11:42;;;;;;;0.00;0.00;;;;;;;;;;5015903;28;20318;-80
2022/06/21 11:14:21;;;;;;;0.00;0.00;;;;;;;;;;5015282;28;20099;-81
2022/06/21 11:16:46;;;;;;;0.00;0.00;;;;;;;;;;5032320;28;20065;-80
2022/06/21 11:19:32;;;;;;;0.00;0.00;;;;;;;;;;5015330;28;20045;-80
2022/06/21 11:21:58;;;;;;;;;;;;;;;;;;5015581;28;20060;-79
2022/06/21 11:24:43;;;;;;;0.00;0.00;;;;;;;;;;5033061;28;19917;-80
2022/06/21 11:27:27;;;;;;;0.00;0.00;;;;;;;;;;5015387;28;20124;-80
2022/06/21 11:30:09;;;;;;;0.00;0.00;;;;;;;;;;5015358;28;20038;-81
2022/06/21 11:32:51;;;;;;;0.00;0.00;;;;;;;;;;5033093;28;20072;-80
2022/06/21 11:35:20;;;;;;;0.00;0.00;;;;;;;;;;4995864;28;20069;-81
2022/06/21 11:38:04;;;;;;;0.00;0.00;;;;;;;;;;4995952;28;20373;-81
2022/06/21 11:40:42;;;;;;;0.00;0.00;;;;;;;;;;5013203;28;20042;-82
2022/06/21 11:43:24;;;;;;;0.00;0.00;;;;;;;;;;5011777;28;20049;-80
2022/06/21 11:45:51;;;;;;;0.00;0.00;;;;;;;;;;4995199;28;20489;-80
2022/06/21 11:48:33;;;;;;;0.00;0.00;;;;;;;;;;5013263;28;20046;-80
2022/06/21 11:51:11;;;;;;;0.00;0.00;;;;;;;;;;4995966;28;20060;-81
2022/06/21 11:53:37;;;;;;;0.00;0.00;;;;;;;;;;5011611;28;20456;-81
2022/06/21 11:56:09;;;;;;;0.00;0.00;;;;;;;;;;5011886;28;20208;-80
2022/06/21 11:58:54;;;;;;;0.00;0.00;;;;;;;;;;5011525;28;20050;-80
2022/06/21 12:01:20;;;;;;;0.00;0.00;;;;;;;;;;4979261;28;20050;-80
2022/06/21 12:04:04;;;;;;;0.00;0.00;;;;;;;;;;5011561;28;20052;-81
2022/06/21 12:06:36;;;;;;;0.00;0.00;;;;;;;;;;5013053;28;20034;-81
2022/06/21 12:09:05;;;;;;;0.00;0.00;;;;;;;;;;5011652;28;20050;-80
2022/06/21 12:11:37;;;;;;;0.00;0.00;;;;;;;;;;5012113;28;20397;-80
2022/06/21 12:14:12;;;;;;;0.00;0.00;;;;;;;;;;5011371;28;20046;-81
2022/06/21 12:16:38;;;;;;;0.00;0.00;;;;;;;;;;5011480;28;20065;-81
2022/06/21 12:19:25;;;;;;;0.00;0.00;;;;;;;;;;5012854;28;20072;-81
2022/06/21 12:21:54;;;;;;;0.00;0.00;;;;;;;;;;4995494;28;20161;-80
2022/06/21 12:24:23;;;;;;;0.00;0.00;;;;;;;;;;5012694;28;20474;-81
2022/06/21 12:26:49;;;;;;;0.00;0.00;;;;;;;;;;5011619;28;20037;-80
2022/06/21 12:29:17;;;;;;;0.00;0.00;;;;;;;;;;5012545;28;20045;-81
2022/06/21 12:31:50;;;;;;;0.00;0.00;;;;;;;;;;5011530;28;20068;-80
2022/06/21 12:34:35;;;;;;;0.00;0.00;;;;;;;;;;5011580;28;20060;-81
2022/06/21 12:37:06;;;;;;;0.00;0.00;;;;;;;;;;4979217;28;20129;-80
2022/06/21 12:39:32;;;;;;;0.00;0.00;;;;;;;;;;5011382;28;20042;-80
2022/06/21 12:42:07;;;;;;;0.00;0.00;;;;;;;;;;5011551;28;20049;-80
2022/06/21 12:44:39;;;;;;;0.00;0.00;;;;;;;;;;5012349;28;20505;-81
2022/06/21 12:47:17;;;;;;;0.00;0.00;;;;;;;;;;5011391;28;20053;-81
2022/06/21 12:50:03;;;;;;;0.00;0.00;;;;;;;;;;4994675;28;20049;-82
2022/06/21 12:52:38;;;;;;;0.00;0.00;;;;;;;;;;5013786;28;20322;-80
2022/06/21 12:55:23;;;;;;;0.10;0.00;;;;;;;;;;5020830;28;20137;-83
2022/06/21 12:57:55;;;;;;;0.00;0.00;;;;;;;;;;4994697;28;20053;-82
2022/06/21 13:00:28;;;;;;;0.00;0.00;;;;;;;;;;4998161;28;20050;-81
2022/06/21 13:03:12;;;;;;;0.00;0.00;;;;;;;;;;5016226;28;20123;-81
2022/06/21 13:05:45;;;;;;;0.00;0.00;;;;;;;;;;5016224;28;20038;-81
2022/06/21 13:08:30;;;;;;;0.00;0.00;;;;;;;;;;4998233;28;20046;-81
2022/06/21 13:11:05;;;;;;;0.00;0.00;;;;;;;;;;5016097;28;20042;-81
2022/06/21 13:13:37;;;;;;;0.00;0.00;;;;;;;;;;4998034;28;20092;-81
2022/06/21 13:16:16;;;;;;;0.00;0.00;;;;;;;;;;4998285;28;20050;-81
2022/06/21 13:19:08;;;;;;;0.00;0.00;;;;;;;;;;4998658;28;20382;-81
2022/06/21 13:21:40;;;;;;;0.00;0.00;;;;;;;;;;4995468;28;20049;-81
2022/06/21 13:24:06;;;;;;;0.00;0.00;;;;;;;;;;4998019;28;20389;-81
2022/06/21 13:26:47;;;;;;;0.00;0.00;;;;;;;;;;4998368;28;20121;-81
2022/06/21 13:29:39;;;;;;;0.00;0.00;;;;;;;;;;4998006;28;20069;-81
2022/06/21 13:32:07;;;;;;;0.00;0.00;;;;;;;;;;4981848;28;20124;-81
2022/06/21 13:34:36;;;;;;;0.00;0.00;;;;;;;;;;4997795;28;20087;-81
2022/06/21 13:37:13;;;;;;;0.00;0.00;;;;;;;;;;4997907;28;20037;-81
2022/06/21 13:39:44;;;;;;;0.00;0.00;;;;;;;;;;5015217;28;20473;-81
2022/06/21 13:45:14;;;;;;;0.00;0.00;;;;;;;;;;5015391;28;20393;-81
2022/06/21 13:47:54;;;;;;;0.00;0.00;;;;;;;;;;4997742;28;20046;-81
2022/06/21 13:50:41;;;;;;;0.00;0.00;;;;;;;;;;4997391;28;20456;-81
2022/06/21 13:53:25;;;;;;;0.00;0.00;;;;;;;;;;4959177;28;20058;-81
2022/06/21 13:56:03;;;;;;;0.00;0.00;;;;;;;;;;5015322;28;20046;-81
2022/06/21 13:58:32;;;;;;;0.00;0.00;;;;;;;;;;4998987;28;20046;-82
2022/06/21 14:01:15;;;;;;;0.00;0.00;;;;;;;;;;4997718;28;20050;-83
2022/06/21 14:04:04;;;;;;;0.00;0.00;;;;;;;;;;5014905;28;20070;-81
2022/06/21 14:06:33;;;;;;;0.00;0.00;;;;;;;;;;5007478;28;20063;-83
2022/06/21 14:09:22;;;;;;;0.00;0.00;;;;;;;;;;5016444;28;20446;-82
2022/06/21 14:12:09;;;;;;;0.00;0.00;;;;;;;;;;5011627;28;20432;-81
2022/06/21 14:14:46;;;;;;;0.00;0.00;;;;;;;;;;4971297;28;20053;-82
2022/06/21 14:20:34;;;;;;;0.00;0.00;;;;;;;;;;5016129;28;20081;-82
2022/06/21 14:23:18;;;;;;;0.00;0.00;;;;;;;;;;5016465;28;20432;-83
2022/06/21 14:25:48;;;;;;;0.00;0.00;;;;;;;;;;5016241;28;20458;-81
2022/06/21 14:28:18;;;;;;;0.00;0.00;;;;;;;;;;5016614;28;20124;-81
2022/06/21 14:30:50;;;;;;;0.00;0.00;;;;;;;;;;5016815;28;20041;-81
2022/06/21 14:33:29;;;;;;;0.00;0.00;;;;;;;;;;5016538;28;20120;-81
2022/06/21 14:35:59;;;;;;;0.00;0.00;;;;;;;;;;5016237;28;20111;-81
2022/06/21 14:38:30;;;;;;;0.00;0.00;;;;;;;;;;5016523;28;20135;-81
2022/06/21 14:40:59;;;;;;;0.00;0.00;;;;;;;;;;5016001;28;20096;-81
2022/06/21 14:43:44;;;;;;;0.00;0.00;;;;;;;;;;5016165;28;20045;-81
2022/06/21 14:46:18;;;;;;;0.00;0.00;;;;;;;;;;5014766;28;20041;-81
2022/06/21 14:49:03;;;;;;;0.00;0.00;;;;;;;;;;5034031;28;20204;-81
2022/06/21 14:51:36;;;;;;;0.00;0.00;;;;;;;;;;5033840;28;20052;-81
2022/06/21 14:54:08;;;;;;;0.00;0.00;;;;;;;;;;5016157;28;20076;-81
2022/06/21 14:56:35;;;;;;;0.00;0.00;;;;;;;;;;5033902;28;20037;-81
2022/06/21 14:59:19;;;;;;;0.00;0.00;;;;;;;;;;5016146;28;20127;-81
2022/06/21 15:01:53;;;;;;;0.00;0.00;;;;;;;;;;5015845;28;20496;-83
2022/06/21 15:04:19;;;;;;;0.00;0.00;;;;;;;;;;5015595;28;20308;-82
2022/06/21 15:06:58;;;;;;;0.00;0.00;;;;;;;;;;5033391;28;20119;-82
2022/06/21 15:09:31;;;;;;;0.00;0.00;;;;;;;;;;5015377;28;20045;-82
2022/06/21 15:12:00;;;;;;;0.00;0.00;;;;;;;;;;5015953;28;20044;-81
2022/06/21 15:14:48;;;;;;;0.00;0.00;;;;;;;;;;5015412;28;20053;-81
2022/06/21 15:17:33;;;;;;;0.00;0.00;;;;;;;;;;5015253;28;20569;-81
2022/06/21 15:20:04;;;;;;;0.10;0.03;;;;;;;;;;5013392;28;20057;-81
2022/06/21 15:22:49;;;;;;;0.00;0.00;;;;;;;;;;4998328;28;20499;-81
2022/06/21 15:25:24;;;;;;;0.00;0.00;;;;;;;;;;5014331;28;20086;-82
2022/06/21 15:28:09;;;;;;;0.00;0.00;;;;;;;;;;5015297;28;20045;-82
2022/06/21 15:30:38;;;;;;;0.00;0.00;;;;;;;;;;5031343;28;20052;-82
2022/06/21 15:33:05;;;;;;;0.00;0.00;;;;;;;;;;5015129;28;20041;-82
2022/06/21 15:35:47;;;;;;;0.00;0.00;;;;;;;;;;5012362;28;20049;-82
2022/06/21 15:38:15;;;;;;;0.00;0.00;;;;;;;;;;5015059;28;20072;-82